sensor_id;sensor_type;location;lat;lon;timestamp;temperature;humidity
48604;DHT22;32708;51.212;6.788;2022-10-23T08:09:49;16.00;99.90
48604;DHT22;32708;51.212;6.788;2022-10-23T08:12:16;16.20;99.90
48604;DHT22;32708;51.212;6.788;2022-10-23T08:14:42;16.40;99.90
48604;DHT22;32708;51.212;6.788;2022-10-23T08:17:08;16.60;99.90
48604;DHT22;32708;51.212;6.788;2022-10-23T08:20:07;17.00;99.90
48604;DHT22;32708;51.212;6.788;2022-10-23T08:22:39;17.20;99.90
48604;DHT22;32708;51.212;6.788;2022-10-23T08:25:06;17.40;99.90
48604;DHT22;32708;51.212;6.788;2022-10-23T08:27:32;17.50;99.90
48604;DHT22;32708;51.212;6.788;2022-10-23T08:29:58;17.70;99.90
48604;DHT22;32708;51.212;6.788;2022-10-23T08:32:28;17.70;99.90
48604;DHT22;32708;51.212;6.788;2022-10-23T08:34:58;17.80;99.90
48604;DHT22;32708;51.212;6.788;2022-10-23T08:37:26;17.90;99.70
48604;DHT22;32708;51.212;6.788;2022-10-23T08:39:52;18.00;98.00
48604;DHT22;32708;51.212;6.788;2022-10-23T08:42:38;18.00;98.00
48604;DHT22;32708;51.212;6.788;2022-10-23T08:45:06;18.10;97.50
48604;DHT22;32708;51.212;6.788;2022-10-23T08:47:48;18.10;97.20
48604;DHT22;32708;51.212;6.788;2022-10-23T08:50:43;18.00;97.00
48604;DHT22;32708;51.212;6.788;2022-10-23T08:53:30;18.10;96.90
48604;DHT22;32708;51.212;6.788;2022-10-23T08:56:01;18.20;97.00
48604;DHT22;32708;51.212;6.788;2022-10-23T08:58:49;18.30;95.20
48604;DHT22;32708;51.212;6.788;2022-10-23T09:01:37;18.20;96.20
48604;DHT22;32708;51.212;6.788;2022-10-23T09:04:05;18.30;95.10
48604;DHT22;32708;51.212;6.788;2022-10-23T09:12:25;18.20;96.50
48604;DHT22;32708;51.212;6.788;2022-10-23T09:17:31;18.30;94.50
48604;DHT22;32708;51.212;6.788;2022-10-23T09:22:56;18.50;91.80
48604;DHT22;32708;51.212;6.788;2022-10-23T09:25:26;18.50;92.10
48604;DHT22;32708;51.212;6.788;2022-10-23T09:27:56;18.50;91.10
48604;DHT22;32708;51.212;6.788;2022-10-23T09:30:33;18.50;92.20
48604;DHT22;32708;51.212;6.788;2022-10-23T09:33:11;18.60;91.40
48604;DHT22;32708;51.212;6.788;2022-10-23T09:35:37;18.50;91.20
48604;DHT22;32708;51.212;6.788;2022-10-23T09:38:03;18.40;91.30
48604;DHT22;32708;51.212;6.788;2022-10-23T09:40:30;18.40;91.90
48604;DHT22;32708;51.212;6.788;2022-10-23T09:43:14;18.50;92.50
48604;DHT22;32708;51.212;6.788;2022-10-23T09:45:41;18.60;91.30
48604;DHT22;32708;51.212;6.788;2022-10-23T09:48:15;18.70;91.10
48604;DHT22;32708;51.212;6.788;2022-10-23T09:50:52;18.70;90.60
48604;DHT22;32708;51.212;6.788;2022-10-23T09:56:06;18.80;86.10
48604;DHT22;32708;51.212;6.788;2022-10-23T09:59:05;18.90;89.90
48604;DHT22;32708;51.212;6.788;2022-10-23T10:01:57;20.50;87.20
48604;DHT22;32708;51.212;6.788;2022-10-23T10:04:41;19.20;86.10
48604;DHT22;32708;51.212;6.788;2022-10-23T10:07:26;19.30;77.30
48604;DHT22;32708;51.212;6.788;2022-10-23T10:09:54;19.20;77.10
48604;DHT22;32708;51.212;6.788;2022-10-23T10:12:41;19.10;84.00
48604;DHT22;32708;51.212;6.788;2022-10-23T10:21:23;19.00;85.90
48604;DHT22;32708;51.212;6.788;2022-10-23T10:26:59;19.10;86.60
48604;DHT22;32708;51.212;6.788;2022-10-23T10:38:11;19.20;85.80
48604;DHT22;32708;51.212;6.788;2022-10-23T10:46:26;19.50;78.90
48604;DHT22;32708;51.212;6.788;2022-10-23T10:49:26;19.30;79.00
48604;DHT22;32708;51.212;6.788;2022-10-23T10:55:11;19.30;79.50
48604;DHT22;32708;51.212;6.788;2022-10-23T10:57:51;19.40;77.90
48604;DHT22;32708;51.212;6.788;2022-10-23T11:00:23;19.50;77.20
48604;DHT22;32708;51.212;6.788;2022-10-23T11:05:44;19.50;78.10
48604;DHT22;32708;51.212;6.788;2022-10-23T11:08:18;19.50;75.30
48604;DHT22;32708;51.212;6.788;2022-10-23T11:10:52;19.30;78.90
48604;DHT22;32708;51.212;6.788;2022-10-23T11:13:38;19.40;80.40
48604;DHT22;32708;51.212;6.788;2022-10-23T11:16:37;19.30;81.20
48604;DHT22;32708;51.212;6.788;2022-10-23T11:22:27;19.40;78.80
48604;DHT22;32708;51.212;6.788;2022-10-23T11:25:02;19.40;78.50
48604;DHT22;32708;51.212;6.788;2022-10-23T11:30:29;19.40;78.00
48604;DHT22;32708;51.212;6.788;2022-10-23T11:36:16;19.30;78.50
48604;DHT22;32708;51.212;6.788;2022-10-23T11:38:48;19.30;81.00
48604;DHT22;32708;51.212;6.788;2022-10-23T11:41:16;19.30;81.90
48604;DHT22;32708;51.212;6.788;2022-10-23T11:43:48;19.20;80.90
48604;DHT22;32708;51.212;6.788;2022-10-23T11:48:55;19.20;78.40
48604;DHT22;32708;51.212;6.788;2022-10-23T11:56:31;19.30;79.40
48604;DHT22;32708;51.212;6.788;2022-10-23T12:02:37;19.50;72.40
48604;DHT22;32708;51.212;6.788;2022-10-23T12:05:29;19.50;73.90
48604;DHT22;32708;51.212;6.788;2022-10-23T12:07:56;19.50;74.30
48604;DHT22;32708;51.212;6.788;2022-10-23T12:10:42;19.60;69.40
48604;DHT22;32708;51.212;6.788;2022-10-23T12:16:06;19.70;67.20
48604;DHT22;32708;51.212;6.788;2022-10-23T12:18:44;19.80;70.80
48604;DHT22;32708;51.212;6.788;2022-10-23T12:21:21;19.70;64.10
48604;DHT22;32708;51.212;6.788;2022-10-23T12:27:08;19.80;70.20
48604;DHT22;32708;51.212;6.788;2022-10-23T12:30:11;19.70;71.80
48604;DHT22;32708;51.212;6.788;2022-10-23T12:33:09;19.80;73.00
48604;DHT22;32708;51.212;6.788;2022-10-23T12:38:46;19.80;73.00
48604;DHT22;32708;51.212;6.788;2022-10-23T12:41:21;19.80;76.20
48604;DHT22;32708;51.212;6.788;2022-10-23T12:44:01;19.80;76.10
48604;DHT22;32708;51.212;6.788;2022-10-23T12:46:32;19.80;76.50
48604;DHT22;32708;51.212;6.788;2022-10-23T12:49:01;19.70;77.20
48604;DHT22;32708;51.212;6.788;2022-10-23T12:51:31;19.20;77.10
48604;DHT22;32708;51.212;6.788;2022-10-23T12:53:58;19.70;79.30
48604;DHT22;32708;51.212;6.788;2022-10-23T12:56:26;19.70;78.60
48604;DHT22;32708;51.212;6.788;2022-10-23T12:58:55;19.50;78.10
48604;DHT22;32708;51.212;6.788;2022-10-23T13:01:40;19.70;79.10
48604;DHT22;32708;51.212;6.788;2022-10-23T13:04:11;19.70;82.60
48604;DHT22;32708;51.212;6.788;2022-10-23T13:06:41;19.70;81.30
48604;DHT22;32708;51.212;6.788;2022-10-23T13:09:26;19.60;82.20
48604;DHT22;32708;51.212;6.788;2022-10-23T13:12:27;19.70;80.80
48604;DHT22;32708;51.212;6.788;2022-10-23T13:20:25;19.50;86.60
48604;DHT22;32708;51.212;6.788;2022-10-23T13:23:18;19.50;85.80
48604;DHT22;32708;51.212;6.788;2022-10-23T13:28:48;19.40;87.20
48604;DHT22;32708;51.212;6.788;2022-10-23T13:34:28;19.30;90.40
48604;DHT22;32708;51.212;6.788;2022-10-23T13:37:02;19.40;90.20
48604;DHT22;32708;51.212;6.788;2022-10-23T13:39:33;19.40;89.40
48604;DHT22;32708;51.212;6.788;2022-10-23T13:42:12;19.40;91.00
48604;DHT22;32708;51.212;6.788;2022-10-23T13:44:39;19.40;90.40
48604;DHT22;32708;51.212;6.788;2022-10-23T13:47:11;19.50;89.80
48604;DHT22;32708;51.212;6.788;2022-10-23T13:49:37;19.40;90.10
48604;DHT22;32708;51.212;6.788;2022-10-23T13:52:03;19.40;90.90
48604;DHT22;32708;51.212;6.788;2022-10-23T13:54:30;19.30;90.80
48604;DHT22;32708;51.212;6.788;2022-10-23T13:56:56;19.30;91.00
48604;DHT22;32708;51.212;6.788;2022-10-23T13:59:23;19.40;90.80
48604;DHT22;32708;51.212;6.788;2022-10-23T14:01:50;19.40;90.10
48604;DHT22;32708;51.212;6.788;2022-10-23T14:04:17;19.50;90.20
48604;DHT22;32708;51.212;6.788;2022-10-23T14:06:44;19.40;90.60
48604;DHT22;32708;51.212;6.788;2022-10-23T14:09:13;19.40;90.50
48604;DHT22;32708;51.212;6.788;2022-10-23T14:11:40;19.40;91.40
48604;DHT22;32708;51.212;6.788;2022-10-23T14:14:06;19.50;90.70
48604;DHT22;32708;51.212;6.788;2022-10-23T14:16:33;19.50;91.30
48604;DHT22;32708;51.212;6.788;2022-10-23T14:18:59;19.40;91.40
48604;DHT22;32708;51.212;6.788;2022-10-23T14:21:25;19.40;91.10
48604;DHT22;32708;51.212;6.788;2022-10-23T14:23:52;19.40;91.30
48604;DHT22;32708;51.212;6.788;2022-10-23T14:26:21;19.30;91.90
48604;DHT22;32708;51.212;6.788;2022-10-23T14:28:52;19.30;92.50
48604;DHT22;32708;51.212;6.788;2022-10-23T14:31:19;19.40;92.00
48604;DHT22;32708;51.212;6.788;2022-10-23T14:33:50;19.40;91.70
48604;DHT22;32708;51.212;6.788;2022-10-23T14:36:16;19.30;92.70
48604;DHT22;32708;51.212;6.788;2022-10-23T14:38:42;19.40;92.80
48604;DHT22;32708;51.212;6.788;2022-10-23T14:41:10;19.40;92.80
48604;DHT22;32708;51.212;6.788;2022-10-23T14:43:37;19.40;92.40
48604;DHT22;32708;51.212;6.788;2022-10-23T14:46:13;19.40;92.80
48604;DHT22;32708;51.212;6.788;2022-10-23T14:48:40;19.30;93.70
48604;DHT22;32708;51.212;6.788;2022-10-23T14:51:18;19.40;93.40
48604;DHT22;32708;51.212;6.788;2022-10-23T14:53:45;19.30;93.10
48604;DHT22;32708;51.212;6.788;2022-10-23T14:56:12;19.30;93.60
48604;DHT22;32708;51.212;6.788;2022-10-23T14:58:38;19.40;93.50
48604;DHT22;32708;51.212;6.788;2022-10-23T15:01:05;18.20;93.50
48604;DHT22;32708;51.212;6.788;2022-10-23T15:03:31;19.20;97.10
48604;DHT22;32708;51.212;6.788;2022-10-23T15:05:57;19.10;99.40
48604;DHT22;32708;51.212;6.788;2022-10-23T15:08:24;19.00;99.90
48604;DHT22;32708;51.212;6.788;2022-10-23T15:10:50;18.10;99.90
48604;DHT22;32708;51.212;6.788;2022-10-23T15:13:16;17.80;99.90
48604;DHT22;32708;51.212;6.788;2022-10-23T15:15:42;17.70;99.90
48604;DHT22;32708;51.212;6.788;2022-10-23T15:18:09;17.70;99.90
48604;DHT22;32708;51.212;6.788;2022-10-23T15:20:35;17.70;99.90
48604;DHT22;32708;51.212;6.788;2022-10-23T15:23:01;17.70;99.90
48604;DHT22;32708;51.212;6.788;2022-10-23T15:25:28;17.70;99.90
48604;DHT22;32708;51.212;6.788;2022-10-23T15:27:54;17.80;99.90
48604;DHT22;32708;51.212;6.788;2022-10-23T15:30:20;17.80;99.90
